sensor_id;sensor_type;location;lat;lon;timestamp;pressure;altitude;pressure_sealevel;temperature;humidity
61205;BME280;47068;55.780;37.520;2023-07-09T00:01:04;99639.81;;;18.46;68.55
61205;BME280;47068;55.780;37.520;2023-07-09T00:03:30;99629.69;;;18.42;68.10
61205;BME280;47068;55.780;37.520;2023-07-09T00:05:55;99626.81;;;18.43;68.63
61205;BME280;47068;55.780;37.520;2023-07-09T00:08:28;99622.03;;;18.45;68.37
61205;BME280;47068;55.780;37.520;2023-07-09T00:10:55;99631.53;;;18.48;68.29
61205;BME280;47068;55.780;37.520;2023-07-09T00:13:21;99627.84;;;18.42;68.50
61205;BME280;47068;55.780;37.520;2023-07-09T00:15:47;99628.66;;;18.43;68.67
61205;BME280;47068;55.780;37.520;2023-07-09T00:18:12;99635.31;;;18.40;68.50
61205;BME280;47068;55.780;37.520;2023-07-09T00:20:38;99628.25;;;18.39;68.55
61205;BME280;47068;55.780;37.520;2023-07-09T00:23:03;99620.41;;;18.38;68.83
61205;BME280;47068;55.780;37.520;2023-07-09T00:25:30;99622.91;;;18.33;69.10
61205;BME280;47068;55.780;37.520;2023-07-09T00:27:56;99617.13;;;18.29;69.74
61205;BME280;47068;55.780;37.520;2023-07-09T00:30:21;99605.16;;;18.25;69.97
61205;BME280;47068;55.780;37.520;2023-07-09T00:32:50;99615.94;;;18.25;69.69
61205;BME280;47068;55.780;37.520;2023-07-09T00:35:17;99610.97;;;18.22;69.78
61205;BME280;47068;55.780;37.520;2023-07-09T00:37:43;99612.22;;;18.20;69.78
61205;BME280;47068;55.780;37.520;2023-07-09T00:40:16;99605.16;;;18.19;70.40
61205;BME280;47068;55.780;37.520;2023-07-09T00:42:47;99611.81;;;18.16;70.37
61205;BME280;47068;55.780;37.520;2023-07-09T00:45:24;99606.44;;;18.16;70.56
61205;BME280;47068;55.780;37.520;2023-07-09T00:50:35;99597.56;;;18.09;70.82
61205;BME280;47068;55.780;37.520;2023-07-09T00:53:03;99594.47;;;18.05;71.04
61205;BME280;47068;55.780;37.520;2023-07-09T00:55:33;99595.13;;;18.01;71.19
61205;BME280;47068;55.780;37.520;2023-07-09T00:58:03;99582.50;;;18.01;71.18
61205;BME280;47068;55.780;37.520;2023-07-09T01:00:33;99592.03;;;17.97;71.45
61205;BME280;47068;55.780;37.520;2023-07-09T01:03:07;99591.00;;;17.92;71.34
61205;BME280;47068;55.780;37.520;2023-07-09T01:05:35;99582.09;;;17.91;71.99
61205;BME280;47068;55.780;37.520;2023-07-09T01:08:01;99586.25;;;17.94;71.99
61205;BME280;47068;55.780;37.520;2023-07-09T01:10:27;99582.06;;;17.98;72.08
61205;BME280;47068;55.780;37.520;2023-07-09T01:12:53;99586.00;;;18.02;71.69
61205;BME280;47068;55.780;37.520;2023-07-09T01:15:18;99590.34;;;18.03;72.09
61205;BME280;47068;55.780;37.520;2023-07-09T01:17:43;99582.88;;;18.05;71.79
61205;BME280;47068;55.780;37.520;2023-07-09T01:20:14;99586.19;;;18.07;71.50
61205;BME280;47068;55.780;37.520;2023-07-09T01:22:39;99584.94;;;18.09;71.36
61205;BME280;47068;55.780;37.520;2023-07-09T01:25:05;99584.94;;;18.09;71.23
61205;BME280;47068;55.780;37.520;2023-07-09T01:27:36;99580.75;;;18.14;71.05
61205;BME280;47068;55.780;37.520;2023-07-09T01:30:10;99577.44;;;18.18;71.30
61205;BME280;47068;55.780;37.520;2023-07-09T01:32:36;99578.47;;;18.17;70.88
61205;BME280;47068;55.780;37.520;2023-07-09T01:35:03;99589.84;;;18.19;71.05
61205;BME280;47068;55.780;37.520;2023-07-09T01:37:32;99585.69;;;18.23;70.60
61205;BME280;47068;55.780;37.520;2023-07-09T01:39:57;99583.16;;;18.28;70.36
61205;BME280;47068;55.780;37.520;2023-07-09T01:42:23;99576.75;;;18.29;70.31
61205;BME280;47068;55.780;37.520;2023-07-09T01:44:50;99584.00;;;18.29;70.78
61205;BME280;47068;55.780;37.520;2023-07-09T01:47:16;99586.72;;;18.22;70.59
61205;BME280;47068;55.780;37.520;2023-07-09T01:49:42;99589.25;;;18.17;71.12
61205;BME280;47068;55.780;37.520;2023-07-09T01:52:11;99589.47;;;18.16;71.82
61205;BME280;47068;55.780;37.520;2023-07-09T01:54:37;99585.31;;;18.13;71.66
61205;BME280;47068;55.780;37.520;2023-07-09T02:00:02;99578.72;;;18.09;72.42
61205;BME280;47068;55.780;37.520;2023-07-09T02:02:29;99582.66;;;18.06;72.18
61205;BME280;47068;55.780;37.520;2023-07-09T02:04:55;99579.13;;;18.06;72.71
61205;BME280;47068;55.780;37.520;2023-07-09T02:07:22;99577.06;;;18.08;72.77
61205;BME280;47068;55.780;37.520;2023-07-09T02:09:47;99577.06;;;18.08;72.32
61205;BME280;47068;55.780;37.520;2023-07-09T02:12:13;99582.47;;;18.08;72.49
61205;BME280;47068;55.780;37.520;2023-07-09T02:14:39;99575.59;;;18.12;72.57
61205;BME280;47068;55.780;37.520;2023-07-09T02:17:05;99580.94;;;18.19;72.45
61205;BME280;47068;55.780;37.520;2023-07-09T02:19:30;99577.00;;;18.21;72.54
61205;BME280;47068;55.780;37.520;2023-07-09T02:21:56;99571.19;;;18.24;72.65
61205;BME280;47068;55.780;37.520;2023-07-09T02:24:22;99565.97;;;18.29;72.42
61205;BME280;47068;55.780;37.520;2023-07-09T02:26:52;99564.06;;;18.36;71.90
61205;BME280;47068;55.780;37.520;2023-07-09T02:29:17;99564.22;;;18.41;71.63
61205;BME280;47068;55.780;37.520;2023-07-09T02:31:43;99568.97;;;18.46;71.77
61205;BME280;47068;55.780;37.520;2023-07-09T02:34:08;99572.88;;;18.50;71.85
61205;BME280;47068;55.780;37.520;2023-07-09T02:36:34;99568.09;;;18.52;71.49
61205;BME280;47068;55.780;37.520;2023-07-09T02:38:59;99567.88;;;18.54;71.40
61205;BME280;47068;55.780;37.520;2023-07-09T02:41:24;99571.00;;;18.57;71.34
61205;BME280;47068;55.780;37.520;2023-07-09T02:43:50;99567.03;;;18.60;70.96
61205;BME280;47068;55.780;37.520;2023-07-09T02:46:15;99571.09;;;18.69;70.69
61205;BME280;47068;55.780;37.520;2023-07-09T02:48:40;99567.38;;;18.70;70.90
61205;BME280;47068;55.780;37.520;2023-07-09T02:51:05;99568.59;;;18.74;70.68
61205;BME280;47068;55.780;37.520;2023-07-09T02:53:31;99567.25;;;18.83;70.18
61205;BME280;47068;55.780;37.520;2023-07-09T02:55:56;99561.16;;;18.94;69.69
61205;BME280;47068;55.780;37.520;2023-07-09T02:58:21;99568.94;;;19.02;70.23
61205;BME280;47068;55.780;37.520;2023-07-09T03:00:50;99563.56;;;19.02;70.94
61205;BME280;47068;55.780;37.520;2023-07-09T03:03:19;99566.03;;;19.04;71.48
61205;BME280;47068;55.780;37.520;2023-07-09T03:05:45;99558.78;;;19.04;71.42
61205;BME280;47068;55.780;37.520;2023-07-09T03:08:10;99563.50;;;19.09;70.54
61205;BME280;47068;55.780;37.520;2023-07-09T03:10:35;99561.81;;;19.14;70.21
61205;BME280;47068;55.780;37.520;2023-07-09T03:13:00;99563.00;;;19.18;69.85
61205;BME280;47068;55.780;37.520;2023-07-09T03:15:26;99563.53;;;19.27;69.60
61205;BME280;47068;55.780;37.520;2023-07-09T03:17:51;99560.69;;;19.40;68.80
61205;BME280;47068;55.780;37.520;2023-07-09T03:20:16;99552.56;;;19.47;68.09
61205;BME280;47068;55.780;37.520;2023-07-09T03:22:42;99552.69;;;19.52;68.35
61205;BME280;47068;55.780;37.520;2023-07-09T03:25:07;99560.06;;;19.63;67.84
61205;BME280;47068;55.780;37.520;2023-07-09T03:27:32;99548.72;;;19.73;67.31
61205;BME280;47068;55.780;37.520;2023-07-09T03:29:58;99548.19;;;19.82;66.65
61205;BME280;47068;55.780;37.520;2023-07-09T03:32:23;99550.72;;;19.95;65.04
61205;BME280;47068;55.780;37.520;2023-07-09T03:34:48;99547.47;;;20.05;65.17
61205;BME280;47068;55.780;37.520;2023-07-09T03:37:13;99549.59;;;20.15;64.48
61205;BME280;47068;55.780;37.520;2023-07-09T03:39:40;99552.72;;;20.30;64.72
61205;BME280;47068;55.780;37.520;2023-07-09T03:42:05;99554.09;;;20.39;64.05
61205;BME280;47068;55.780;37.520;2023-07-09T03:44:30;99556.22;;;20.49;62.34
61205;BME280;47068;55.780;37.520;2023-07-09T03:46:56;99549.19;;;20.59;62.43
61205;BME280;47068;55.780;37.520;2023-07-09T03:49:21;99554.72;;;20.76;60.69
61205;BME280;47068;55.780;37.520;2023-07-09T03:51:46;99555.31;;;20.90;59.23
61205;BME280;47068;55.780;37.520;2023-07-09T03:54:12;99556.16;;;20.90;59.76
61205;BME280;47068;55.780;37.520;2023-07-09T03:56:37;99557.47;;;20.88;55.21
61205;BME280;47068;55.780;37.520;2023-07-09T03:59:02;99550.63;;;20.97;55.57
61205;BME280;47068;55.780;37.520;2023-07-09T04:01:28;99544.28;;;21.03;54.28
61205;BME280;47068;55.780;37.520;2023-07-09T04:03:53;99545.34;;;21.13;58.92
61205;BME280;47068;55.780;37.520;2023-07-09T04:06:18;99547.81;;;21.15;59.20
61205;BME280;47068;55.780;37.520;2023-07-09T04:08:43;99541.59;;;21.14;59.78
61205;BME280;47068;55.780;37.520;2023-07-09T04:11:09;99548.28;;;21.12;60.62
61205;BME280;47068;55.780;37.520;2023-07-09T04:13:34;99551.81;;;21.12;60.30
61205;BME280;47068;55.780;37.520;2023-07-09T04:15:59;99551.25;;;21.22;59.82
61205;BME280;47068;55.780;37.520;2023-07-09T04:18:25;99553.03;;;21.28;58.71
61205;BME280;47068;55.780;37.520;2023-07-09T04:20:50;99551.72;;;21.42;58.24
61205;BME280;47068;55.780;37.520;2023-07-09T04:23:16;99548.84;;;21.60;56.36
61205;BME280;47068;55.780;37.520;2023-07-09T04:25:41;99545.41;;;21.77;56.73
61205;BME280;47068;55.780;37.520;2023-07-09T04:28:07;99535.34;;;21.89;57.18
61205;BME280;47068;55.780;37.520;2023-07-09T04:30:32;99538.84;;;22.01;56.16
61205;BME280;47068;55.780;37.520;2023-07-09T04:32:57;99537.09;;;22.23;52.99
61205;BME280;47068;55.780;37.520;2023-07-09T04:35:23;99534.00;;;22.48;52.06
61205;BME280;47068;55.780;37.520;2023-07-09T04:37:49;99525.00;;;22.76;50.96
61205;BME280;47068;55.780;37.520;2023-07-09T04:40:14;99534.22;;;22.92;51.03
61205;BME280;47068;55.780;37.520;2023-07-09T04:42:40;99530.66;;;23.08;51.92
61205;BME280;47068;55.780;37.520;2023-07-09T04:45:06;99528.22;;;23.28;50.80
61205;BME280;47068;55.780;37.520;2023-07-09T04:47:32;99524.56;;;23.56;50.10
61205;BME280;47068;55.780;37.520;2023-07-09T04:49:57;99513.91;;;23.98;49.26
61205;BME280;47068;55.780;37.520;2023-07-09T04:52:22;99520.22;;;24.25;46.70
61205;BME280;47068;55.780;37.520;2023-07-09T04:54:48;99516.88;;;24.50;45.28
61205;BME280;47068;55.780;37.520;2023-07-09T04:57:15;99514.16;;;24.82;45.97
61205;BME280;47068;55.780;37.520;2023-07-09T04:59:41;99512.50;;;25.18;45.17
61205;BME280;47068;55.780;37.520;2023-07-09T05:02:06;99504.41;;;25.28;41.60
61205;BME280;47068;55.780;37.520;2023-07-09T05:04:32;99507.41;;;25.32;42.37
61205;BME280;47068;55.780;37.520;2023-07-09T05:06:57;99505.03;;;25.45;41.72
61205;BME280;47068;55.780;37.520;2023-07-09T05:09:23;99509.53;;;25.77;39.87
61205;BME280;47068;55.780;37.520;2023-07-09T05:11:49;99505.88;;;26.39;38.74
61205;BME280;47068;55.780;37.520;2023-07-09T05:14:14;99494.69;;;26.65;36.84
61205;BME280;47068;55.780;37.520;2023-07-09T05:16:40;99490.03;;;26.86;38.97
61205;BME280;47068;55.780;37.520;2023-07-09T05:19:06;99506.13;;;27.08;38.56
61205;BME280;47068;55.780;37.520;2023-07-09T05:21:32;99497.66;;;27.15;36.18
61205;BME280;47068;55.780;37.520;2023-07-09T05:23:57;99499.28;;;27.16;37.45
61205;BME280;47068;55.780;37.520;2023-07-09T05:26:22;99491.13;;;27.00;36.08
61205;BME280;47068;55.780;37.520;2023-07-09T05:28:48;99489.50;;;26.94;37.89
61205;BME280;47068;55.780;37.520;2023-07-09T05:31:13;99491.69;;;26.77;38.75
61205;BME280;47068;55.780;37.520;2023-07-09T05:33:38;99481.88;;;26.66;39.33
61205;BME280;47068;55.780;37.520;2023-07-09T05:36:04;99487.84;;;26.63;38.85
61205;BME280;47068;55.780;37.520;2023-07-09T05:38:29;99489.22;;;26.71;39.14
61205;BME280;47068;55.780;37.520;2023-07-09T05:41:02;99487.31;;;26.71;34.42
61205;BME280;47068;55.780;37.520;2023-07-09T05:43:28;99494.59;;;25.89;34.87
61205;BME280;47068;55.780;37.520;2023-07-09T05:45:53;99487.81;;;26.17;34.86
61205;BME280;47068;55.780;37.520;2023-07-09T05:48:18;99491.66;;;26.97;33.42
61205;BME280;47068;55.780;37.520;2023-07-09T05:50:44;99487.97;;;27.53;32.46
61205;BME280;47068;55.780;37.520;2023-07-09T05:53:09;99487.41;;;28.10;33.21
61205;BME280;47068;55.780;37.520;2023-07-09T05:55:35;99489.56;;;28.86;31.84
61205;BME280;47068;55.780;37.520;2023-07-09T05:58:00;99483.88;;;29.77;32.40
61205;BME280;47068;55.780;37.520;2023-07-09T06:00:25;99485.00;;;30.51;30.26
61205;BME280;47068;55.780;37.520;2023-07-09T06:02:51;99477.28;;;31.00;30.48
61205;BME280;47068;55.780;37.520;2023-07-09T06:05:16;99476.69;;;30.38;29.01
61205;BME280;47068;55.780;37.520;2023-07-09T06:07:41;99483.78;;;29.64;30.37
61205;BME280;47068;55.780;37.520;2023-07-09T06:10:07;99478.78;;;29.23;30.03
61205;BME280;47068;55.780;37.520;2023-07-09T06:12:33;99483.19;;;29.19;30.47
61205;BME280;47068;55.780;37.520;2023-07-09T06:14:59;99482.47;;;29.38;31.79
61205;BME280;47068;55.780;37.520;2023-07-09T06:17:24;99475.00;;;29.43;29.98
61205;BME280;47068;55.780;37.520;2023-07-09T06:19:49;99470.56;;;29.47;31.26
61205;BME280;47068;55.780;37.520;2023-07-09T06:22:15;99469.97;;;29.93;30.69
61205;BME280;47068;55.780;37.520;2023-07-09T06:24:40;99462.69;;;30.21;28.57
61205;BME280;47068;55.780;37.520;2023-07-09T06:27:05;99466.88;;;29.99;27.78
61205;BME280;47068;55.780;37.520;2023-07-09T06:29:31;99469.97;;;29.93;28.86
61205;BME280;47068;55.780;37.520;2023-07-09T06:31:57;99464.41;;;30.35;28.45
61205;BME280;47068;55.780;37.520;2023-07-09T06:34:22;99461.44;;;31.24;29.25
61205;BME280;47068;55.780;37.520;2023-07-09T06:36:47;99461.38;;;31.92;28.47
61205;BME280;47068;55.780;37.520;2023-07-09T06:39:13;99455.53;;;32.30;27.07
61205;BME280;47068;55.780;37.520;2023-07-09T06:41:38;99457.44;;;32.21;26.11
61205;BME280;47068;55.780;37.520;2023-07-09T06:44:06;99454.28;;;31.78;25.78
61205;BME280;47068;55.780;37.520;2023-07-09T06:46:32;99445.03;;;31.74;26.08
61205;BME280;47068;55.780;37.520;2023-07-09T06:48:58;99447.66;;;30.83;27.67
61205;BME280;47068;55.780;37.520;2023-07-09T06:51:23;99451.94;;;32.43;25.11
61205;BME280;47068;55.780;37.520;2023-07-09T06:53:48;99449.31;;;34.39;23.82
61205;BME280;47068;55.780;37.520;2023-07-09T06:56:15;99440.59;;;36.43;22.31
61205;BME280;47068;55.780;37.520;2023-07-09T06:58:40;99441.38;;;38.10;20.55
61205;BME280;47068;55.780;37.520;2023-07-09T07:01:06;99443.06;;;39.84;18.37
61205;BME280;47068;55.780;37.520;2023-07-09T07:03:32;99428.50;;;41.65;16.84
61205;BME280;47068;55.780;37.520;2023-07-09T07:05:57;99423.63;;;42.93;15.39
61205;BME280;47068;55.780;37.520;2023-07-09T07:08:24;99417.09;;;43.29;14.16
61205;BME280;47068;55.780;37.520;2023-07-09T07:10:50;99410.03;;;42.17;14.37
61205;BME280;47068;55.780;37.520;2023-07-09T07:13:16;99419.69;;;40.46;16.84
61205;BME280;47068;55.780;37.520;2023-07-09T07:15:41;99412.56;;;39.36;17.74
61205;BME280;47068;55.780;37.520;2023-07-09T07:18:07;99409.34;;;39.03;17.89
61205;BME280;47068;55.780;37.520;2023-07-09T07:20:33;99416.88;;;39.18;17.52
61205;BME280;47068;55.780;37.520;2023-07-09T07:22:58;99402.09;;;38.98;17.08
61205;BME280;47068;55.780;37.520;2023-07-09T07:25:24;99411.38;;;39.53;17.30
61205;BME280;47068;55.780;37.520;2023-07-09T07:27:50;99408.03;;;40.21;16.52
61205;BME280;47068;55.780;37.520;2023-07-09T07:30:16;99403.84;;;41.45;15.44
61205;BME280;47068;55.780;37.520;2023-07-09T07:32:43;99396.31;;;40.12;16.46
61205;BME280;47068;55.780;37.520;2023-07-09T07:35:08;99396.13;;;39.82;16.51
61205;BME280;47068;55.780;37.520;2023-07-09T07:37:34;99396.34;;;39.58;16.85
61205;BME280;47068;55.780;37.520;2023-07-09T07:39:59;99403.03;;;41.18;15.81
61205;BME280;47068;55.780;37.520;2023-07-09T07:42:25;99395.47;;;43.22;13.20
61205;BME280;47068;55.780;37.520;2023-07-09T07:44:50;99399.22;;;44.24;11.60
61205;BME280;47068;55.780;37.520;2023-07-09T07:47:15;99394.03;;;44.33;12.63
61205;BME280;47068;55.780;37.520;2023-07-09T07:49:40;99384.03;;;46.47;10.77
61205;BME280;47068;55.780;37.520;2023-07-09T07:52:06;99386.00;;;47.80;10.55
61205;BME280;47068;55.780;37.520;2023-07-09T07:54:32;99380.19;;;48.25;9.74
61205;BME280;47068;55.780;37.520;2023-07-09T07:56:58;99377.53;;;49.38;9.52
61205;BME280;47068;55.780;37.520;2023-07-09T07:59:23;99374.38;;;49.32;9.07
61205;BME280;47068;55.780;37.520;2023-07-09T08:01:49;99366.75;;;48.86;8.97
61205;BME280;47068;55.780;37.520;2023-07-09T08:04:14;99364.06;;;48.25;9.50
61205;BME280;47068;55.780;37.520;2023-07-09T08:06:40;99356.88;;;47.19;10.29
61205;BME280;47068;55.780;37.520;2023-07-09T08:09:05;99359.28;;;46.13;10.96
61205;BME280;47068;55.780;37.520;2023-07-09T08:11:31;99344.38;;;44.97;11.86
61205;BME280;47068;55.780;37.520;2023-07-09T08:13:57;99341.84;;;42.69;13.31
61205;BME280;47068;55.780;37.520;2023-07-09T08:16:22;99358.56;;;41.58;14.05
61205;BME280;47068;55.780;37.520;2023-07-09T08:18:48;99347.31;;;41.51;14.06
61205;BME280;47068;55.780;37.520;2023-07-09T08:21:13;99343.78;;;40.56;14.70
61205;BME280;47068;55.780;37.520;2023-07-09T08:23:39;99342.78;;;38.79;16.33
61205;BME280;47068;55.780;37.520;2023-07-09T08:26:04;99346.00;;;37.26;17.53
61205;BME280;47068;55.780;37.520;2023-07-09T08:28:30;99337.25;;;34.76;19.68
61205;BME280;47068;55.780;37.520;2023-07-09T08:30:56;99346.03;;;34.06;21.10
61205;BME280;47068;55.780;37.520;2023-07-09T08:33:21;99339.63;;;33.10;22.25
61205;BME280;47068;55.780;37.520;2023-07-09T08:35:51;99340.94;;;32.34;24.22
61205;BME280;47068;55.780;37.520;2023-07-09T08:38:17;99326.19;;;31.49;24.92
61205;BME280;47068;55.780;37.520;2023-07-09T08:41:27;99339.72;;;30.82;25.70
61205;BME280;47068;55.780;37.520;2023-07-09T08:48:56;99330.69;;;28.91;29.62
61205;BME280;47068;55.780;37.520;2023-07-09T08:51:40;99340.97;;;28.51;30.13
61205;BME280;47068;55.780;37.520;2023-07-09T08:54:09;99331.09;;;28.55;30.51
61205;BME280;47068;55.780;37.520;2023-07-09T08:56:37;99321.84;;;28.75;29.93
61205;BME280;47068;55.780;37.520;2023-07-09T08:59:03;99319.53;;;29.06;29.65
61205;BME280;47068;55.780;37.520;2023-07-09T09:01:36;99322.56;;;29.05;28.43
61205;BME280;47068;55.780;37.520;2023-07-09T09:06:33;99326.00;;;28.44;27.64
61205;BME280;47068;55.780;37.520;2023-07-09T09:09:04;99321.16;;;28.07;28.91
61205;BME280;47068;55.780;37.520;2023-07-09T09:12:01;99320.00;;;28.13;28.92
61205;BME280;47068;55.780;37.520;2023-07-09T09:14:29;99310.53;;;28.34;28.12
61205;BME280;47068;55.780;37.520;2023-07-09T09:16:55;99303.91;;;28.35;27.91
61205;BME280;47068;55.780;37.520;2023-07-09T09:19:34;99299.22;;;28.12;28.52
61205;BME280;47068;55.780;37.520;2023-07-09T09:22:10;99302.22;;;28.15;29.52
61205;BME280;47068;55.780;37.520;2023-07-09T09:27:21;99288.69;;;27.95;29.04
61205;BME280;47068;55.780;37.520;2023-07-09T09:29:46;99288.13;;;27.98;29.86
61205;BME280;47068;55.780;37.520;2023-07-09T09:32:27;99291.25;;;27.87;29.87
61205;BME280;47068;55.780;37.520;2023-07-09T09:34:53;99288.00;;;27.85;30.43
61205;BME280;47068;55.780;37.520;2023-07-09T09:37:27;99288.88;;;27.75;29.59
61205;BME280;47068;55.780;37.520;2023-07-09T09:39:52;99289.31;;;27.58;29.96
61205;BME280;47068;55.780;37.520;2023-07-09T09:42:18;99291.84;;;27.39;30.23
61205;BME280;47068;55.780;37.520;2023-07-09T09:44:43;99291.84;;;27.44;30.68
61205;BME280;47068;55.780;37.520;2023-07-09T09:47:12;99287.13;;;27.50;31.31
61205;BME280;47068;55.780;37.520;2023-07-09T09:49:42;99289.78;;;27.65;31.35
61205;BME280;47068;55.780;37.520;2023-07-09T09:52:12;99275.97;;;27.80;31.29
61205;BME280;47068;55.780;37.520;2023-07-09T09:54:39;99276.44;;;27.93;31.67
61205;BME280;47068;55.780;37.520;2023-07-09T09:57:13;99284.53;;;28.03;30.77
61205;BME280;47068;55.780;37.520;2023-07-09T09:59:42;99281.03;;;27.97;29.98
61205;BME280;47068;55.780;37.520;2023-07-09T10:02:15;99282.38;;;28.00;29.66
61205;BME280;47068;55.780;37.520;2023-07-09T10:04:42;99276.91;;;28.00;29.66
61205;BME280;47068;55.780;37.520;2023-07-09T10:07:10;99274.53;;;27.88;30.10
61205;BME280;47068;55.780;37.520;2023-07-09T10:09:51;99268.56;;;27.86;30.13
61205;BME280;47068;55.780;37.520;2023-07-09T10:20:36;99262.41;;;27.70;30.82
61205;BME280;47068;55.780;37.520;2023-07-09T10:23:16;99263.50;;;27.69;29.88
61205;BME280;47068;55.780;37.520;2023-07-09T10:26:03;99263.94;;;27.81;30.04
61205;BME280;47068;55.780;37.520;2023-07-09T10:39:14;99253.16;;;27.27;32.58
61205;BME280;47068;55.780;37.520;2023-07-09T10:41:43;99261.66;;;27.21;32.04
61205;BME280;47068;55.780;37.520;2023-07-09T10:44:16;99256.28;;;27.05;31.65
61205;BME280;47068;55.780;37.520;2023-07-09T10:46:45;99256.84;;;27.08;33.21
61205;BME280;47068;55.780;37.520;2023-07-09T10:49:13;99242.81;;;27.19;32.07
61205;BME280;47068;55.780;37.520;2023-07-09T10:51:41;99238.72;;;27.22;31.87
61205;BME280;47068;55.780;37.520;2023-07-09T10:54:16;99249.03;;;27.30;32.34
61205;BME280;47068;55.780;37.520;2023-07-09T10:56:47;99250.31;;;27.42;33.20
61205;BME280;47068;55.780;37.520;2023-07-09T10:59:34;99249.69;;;27.56;32.98
61205;BME280;47068;55.780;37.520;2023-07-09T11:02:08;99254.34;;;27.50;31.96
61205;BME280;47068;55.780;37.520;2023-07-09T11:05:21;99243.97;;;27.47;30.58
61205;BME280;47068;55.780;37.520;2023-07-09T11:07:29;99250.63;;;27.36;30.95
61205;BME280;47068;55.780;37.520;2023-07-09T11:09:56;99249.44;;;27.47;31.42
61205;BME280;47068;55.780;37.520;2023-07-09T11:12:32;99248.88;;;27.55;31.56
61205;BME280;47068;55.780;37.520;2023-07-09T11:15:04;99240.00;;;27.68;30.20
61205;BME280;47068;55.780;37.520;2023-07-09T11:17:33;99249.56;;;27.71;30.30
61205;BME280;47068;55.780;37.520;2023-07-09T11:20:00;99242.38;;;27.41;30.12
61205;BME280;47068;55.780;37.520;2023-07-09T11:22:38;99236.34;;;27.10;30.55
61205;BME280;47068;55.780;37.520;2023-07-09T11:25:13;99231.97;;;27.09;30.54
61205;BME280;47068;55.780;37.520;2023-07-09T11:27:48;99231.66;;;27.16;30.66
61205;BME280;47068;55.780;37.520;2023-07-09T11:32:46;99225.63;;;27.19;30.92
61205;BME280;47068;55.780;37.520;2023-07-09T11:35:22;99225.56;;;27.29;31.24
61205;BME280;47068;55.780;37.520;2023-07-09T11:37:48;99224.41;;;27.35;31.41
61205;BME280;47068;55.780;37.520;2023-07-09T11:40:15;99228.25;;;27.34;31.59
61205;BME280;47068;55.780;37.520;2023-07-09T11:42:56;99223.88;;;27.33;31.86
61205;BME280;47068;55.780;37.520;2023-07-09T11:45:24;99223.09;;;27.27;31.85
61205;BME280;47068;55.780;37.520;2023-07-09T11:47:53;99215.84;;;27.13;31.70
61205;BME280;47068;55.780;37.520;2023-07-09T11:50:24;99214.59;;;26.95;32.29
61205;BME280;47068;55.780;37.520;2023-07-09T11:53:02;99224.94;;;26.98;32.02
61205;BME280;47068;55.780;37.520;2023-07-09T11:55:31;99223.00;;;27.03;31.85
61205;BME280;47068;55.780;37.520;2023-07-09T11:57:59;99222.44;;;27.07;32.33
61205;BME280;47068;55.780;37.520;2023-07-09T12:00:25;99220.75;;;27.16;32.63
61205;BME280;47068;55.780;37.520;2023-07-09T12:02:53;99219.56;;;27.27;32.21
61205;BME280;47068;55.780;37.520;2023-07-09T12:05:19;99213.50;;;27.35;32.77
61205;BME280;47068;55.780;37.520;2023-07-09T12:07:46;99224.34;;;27.45;32.09
61205;BME280;47068;55.780;37.520;2023-07-09T12:10:18;99215.81;;;27.57;33.18
61205;BME280;47068;55.780;37.520;2023-07-09T12:12:44;99222.31;;;27.61;31.99
61205;BME280;47068;55.780;37.520;2023-07-09T12:15:24;99220.81;;;27.44;32.04
61205;BME280;47068;55.780;37.520;2023-07-09T12:17:57;99211.31;;;27.32;32.45
61205;BME280;47068;55.780;37.520;2023-07-09T12:20:23;99211.38;;;27.27;33.02
61205;BME280;47068;55.780;37.520;2023-07-09T12:22:48;99213.31;;;27.21;33.17
61205;BME280;47068;55.780;37.520;2023-07-09T12:25:25;99208.19;;;27.15;32.99
61205;BME280;47068;55.780;37.520;2023-07-09T12:27:52;99218.31;;;27.09;33.44
61205;BME280;47068;55.780;37.520;2023-07-09T12:30:17;99211.28;;;27.03;33.18
61205;BME280;47068;55.780;37.520;2023-07-09T12:32:44;99205.00;;;27.02;33.72
61205;BME280;47068;55.780;37.520;2023-07-09T12:35:12;99206.91;;;27.02;33.65
61205;BME280;47068;55.780;37.520;2023-07-09T12:37:37;99203.34;;;27.01;33.84
61205;BME280;47068;55.780;37.520;2023-07-09T12:40:03;99208.00;;;27.01;33.82
61205;BME280;47068;55.780;37.520;2023-07-09T12:42:30;99214.00;;;26.98;32.59
61205;BME280;47068;55.780;37.520;2023-07-09T12:44:56;99208.34;;;26.84;32.50
61205;BME280;47068;55.780;37.520;2023-07-09T12:47:21;99205.63;;;26.79;33.27
61205;BME280;47068;55.780;37.520;2023-07-09T12:49:48;99199.09;;;26.80;33.56
61205;BME280;47068;55.780;37.520;2023-07-09T12:52:21;99199.09;;;26.80;34.15
61205;BME280;47068;55.780;37.520;2023-07-09T12:55:00;99192.84;;;26.75;32.88
61205;BME280;47068;55.780;37.520;2023-07-09T12:57:26;99193.19;;;26.58;33.44
61205;BME280;47068;55.780;37.520;2023-07-09T12:59:53;99189.94;;;26.56;33.68
61205;BME280;47068;55.780;37.520;2023-07-09T13:02:20;99190.75;;;26.61;34.20
61205;BME280;47068;55.780;37.520;2023-07-09T13:04:46;99184.66;;;26.70;33.86
61205;BME280;47068;55.780;37.520;2023-07-09T13:07:46;99195.97;;;26.53;33.65
61205;BME280;47068;55.780;37.520;2023-07-09T13:10:26;99181.59;;;26.32;34.32
61205;BME280;47068;55.780;37.520;2023-07-09T13:12:56;99181.06;;;26.20;34.04
61205;BME280;47068;55.780;37.520;2023-07-09T13:15:26;99181.09;;;26.10;34.19
61205;BME280;47068;55.780;37.520;2023-07-09T13:18:05;99181.13;;;26.05;34.88
61205;BME280;47068;55.780;37.520;2023-07-09T13:20:32;99180.88;;;25.96;35.09
61205;BME280;47068;55.780;37.520;2023-07-09T13:22:57;99175.97;;;25.98;35.16
61205;BME280;47068;55.780;37.520;2023-07-09T13:25:23;99173.50;;;25.97;35.60
61205;BME280;47068;55.780;37.520;2023-07-09T13:27:48;99179.78;;;25.92;36.67
61205;BME280;47068;55.780;37.520;2023-07-09T13:30:14;99190.69;;;25.92;35.96